sensor_id;sensor_type;location;lat;lon;timestamp;temperature;humidity
13231;DHT22;6681;53.254;10.398;2023-02-21T00:01:57;9.30;99.90
13231;DHT22;6681;53.254;10.398;2023-02-21T00:04:41;9.10;99.90
13231;DHT22;6681;53.254;10.398;2023-02-21T00:07:25;8.60;99.90
13231;DHT22;6681;53.254;10.398;2023-02-21T00:10:12;9.10;99.90
13231;DHT22;6681;53.254;10.398;2023-02-21T00:12:57;9.10;99.90
13231;DHT22;6681;53.254;10.398;2023-02-21T00:15:41;9.10;99.90
13231;DHT22;6681;53.254;10.398;2023-02-21T00:18:25;9.10;99.90
13231;DHT22;6681;53.254;10.398;2023-02-21T00:21:09;9.10;99.90
13231;DHT22;6681;53.254;10.398;2023-02-21T00:23:53;9.10;99.90
13231;DHT22;6681;53.254;10.398;2023-02-21T00:26:37;9.10;99.90
13231;DHT22;6681;53.254;10.398;2023-02-21T00:29:21;9.10;99.90
13231;DHT22;6681;53.254;10.398;2023-02-21T00:32:05;9.10;99.90
13231;DHT22;6681;53.254;10.398;2023-02-21T00:34:50;9.30;99.90
13231;DHT22;6681;53.254;10.398;2023-02-21T00:37:34;9.10;99.90
13231;DHT22;6681;53.254;10.398;2023-02-21T00:40:19;9.10;99.90
13231;DHT22;6681;53.254;10.398;2023-02-21T00:43:03;9.10;99.90
13231;DHT22;6681;53.254;10.398;2023-02-21T00:45:47;9.10;99.90
13231;DHT22;6681;53.254;10.398;2023-02-21T00:48:32;9.10;99.90
13231;DHT22;6681;53.254;10.398;2023-02-21T00:51:16;9.30;99.90
13231;DHT22;6681;53.254;10.398;2023-02-21T00:54:00;9.10;99.90
13231;DHT22;6681;53.254;10.398;2023-02-21T00:56:45;9.40;99.90
13231;DHT22;6681;53.254;10.398;2023-02-21T00:59:29;9.10;99.90
13231;DHT22;6681;53.254;10.398;2023-02-21T01:02:13;9.10;99.90
13231;DHT22;6681;53.254;10.398;2023-02-21T01:04:58;9.10;99.90
13231;DHT22;6681;53.254;10.398;2023-02-21T01:07:42;9.10;99.90
13231;DHT22;6681;53.254;10.398;2023-02-21T01:10:26;9.10;99.90
13231;DHT22;6681;53.254;10.398;2023-02-21T01:13:10;9.10;99.90
13231;DHT22;6681;53.254;10.398;2023-02-21T01:15:54;9.10;99.90
13231;DHT22;6681;53.254;10.398;2023-02-21T01:18:38;9.10;99.90
13231;DHT22;6681;53.254;10.398;2023-02-21T01:21:22;9.10;99.90
13231;DHT22;6681;53.254;10.398;2023-02-21T01:24:10;9.10;99.90
13231;DHT22;6681;53.254;10.398;2023-02-21T01:26:55;9.10;99.90
13231;DHT22;6681;53.254;10.398;2023-02-21T01:29:39;9.20;99.90
13231;DHT22;6681;53.254;10.398;2023-02-21T01:32:24;9.10;99.90
13231;DHT22;6681;53.254;10.398;2023-02-21T01:35:08;9.20;99.90
13231;DHT22;6681;53.254;10.398;2023-02-21T01:37:52;9.20;99.90
13231;DHT22;6681;53.254;10.398;2023-02-21T01:40:39;9.20;99.90
13231;DHT22;6681;53.254;10.398;2023-02-21T01:43:25;9.20;99.90
13231;DHT22;6681;53.254;10.398;2023-02-21T01:46:12;9.20;99.90
13231;DHT22;6681;53.254;10.398;2023-02-21T01:48:59;9.20;99.90
13231;DHT22;6681;53.254;10.398;2023-02-21T01:51:43;9.10;99.90
13231;DHT22;6681;53.254;10.398;2023-02-21T01:54:32;9.10;99.90
13231;DHT22;6681;53.254;10.398;2023-02-21T01:57:18;9.10;99.90
13231;DHT22;6681;53.254;10.398;2023-02-21T02:00:06;9.10;99.90
13231;DHT22;6681;53.254;10.398;2023-02-21T02:02:58;9.10;99.90
13231;DHT22;6681;53.254;10.398;2023-02-21T02:05:46;9.10;99.90
13231;DHT22;6681;53.254;10.398;2023-02-21T02:08:32;9.10;99.90
13231;DHT22;6681;53.254;10.398;2023-02-21T02:17:39;9.10;99.90
13231;DHT22;6681;53.254;10.398;2023-02-21T02:28:47;9.10;99.90
13231;DHT22;6681;53.254;10.398;2023-02-21T02:37:22;9.10;99.90
13231;DHT22;6681;53.254;10.398;2023-02-21T02:43:15;9.10;99.90
13231;DHT22;6681;53.254;10.398;2023-02-21T02:45:52;9.10;99.90
13231;DHT22;6681;53.254;10.398;2023-02-21T02:50:59;9.10;99.90
13231;DHT22;6681;53.254;10.398;2023-02-21T02:53:28;9.10;99.90
13231;DHT22;6681;53.254;10.398;2023-02-21T02:56:13;9.10;99.90
13231;DHT22;6681;53.254;10.398;2023-02-21T02:59:00;9.10;99.90
13231;DHT22;6681;53.254;10.398;2023-02-21T03:04:39;9.10;99.90
13231;DHT22;6681;53.254;10.398;2023-02-21T03:10:31;9.10;99.90
13231;DHT22;6681;53.254;10.398;2023-02-21T03:13:20;9.10;99.90
13231;DHT22;6681;53.254;10.398;2023-02-21T03:16:22;9.10;99.90
13231;DHT22;6681;53.254;10.398;2023-02-21T03:18:53;9.10;99.90
13231;DHT22;6681;53.254;10.398;2023-02-21T03:21:26;9.10;99.90
13231;DHT22;6681;53.254;10.398;2023-02-21T03:23:55;9.00;99.90
13231;DHT22;6681;53.254;10.398;2023-02-21T03:26:22;9.10;99.90
13231;DHT22;6681;53.254;10.398;2023-02-21T03:28:49;9.10;99.90
13231;DHT22;6681;53.254;10.398;2023-02-21T03:31:17;9.10;99.90
13231;DHT22;6681;53.254;10.398;2023-02-21T03:33:44;9.10;99.90
13231;DHT22;6681;53.254;10.398;2023-02-21T03:36:10;9.10;99.90
13231;DHT22;6681;53.254;10.398;2023-02-21T03:38:35;9.20;99.90
13231;DHT22;6681;53.254;10.398;2023-02-21T03:41:01;9.10;99.90
13231;DHT22;6681;53.254;10.398;2023-02-21T03:43:27;9.10;99.90
13231;DHT22;6681;53.254;10.398;2023-02-21T03:45:52;9.00;99.90
13231;DHT22;6681;53.254;10.398;2023-02-21T03:48:18;9.00;99.90
13231;DHT22;6681;53.254;10.398;2023-02-21T03:50:44;9.00;99.90
13231;DHT22;6681;53.254;10.398;2023-02-21T03:53:10;9.10;99.90
13231;DHT22;6681;53.254;10.398;2023-02-21T03:55:36;9.00;99.90
13231;DHT22;6681;53.254;10.398;2023-02-21T03:58:01;9.00;99.90
13231;DHT22;6681;53.254;10.398;2023-02-21T04:00:27;9.00;99.90
13231;DHT22;6681;53.254;10.398;2023-02-21T04:02:53;9.00;99.90
13231;DHT22;6681;53.254;10.398;2023-02-21T04:05:18;9.10;99.90
13231;DHT22;6681;53.254;10.398;2023-02-21T04:07:44;9.10;99.90
13231;DHT22;6681;53.254;10.398;2023-02-21T04:10:10;9.00;99.90
13231;DHT22;6681;53.254;10.398;2023-02-21T04:12:35;9.00;99.90
13231;DHT22;6681;53.254;10.398;2023-02-21T04:15:01;9.00;99.90
13231;DHT22;6681;53.254;10.398;2023-02-21T04:17:27;9.00;99.90
13231;DHT22;6681;53.254;10.398;2023-02-21T04:19:52;9.00;99.90
13231;DHT22;6681;53.254;10.398;2023-02-21T04:22:18;9.00;99.90
13231;DHT22;6681;53.254;10.398;2023-02-21T04:24:47;9.00;99.90
13231;DHT22;6681;53.254;10.398;2023-02-21T04:27:13;9.00;99.90
13231;DHT22;6681;53.254;10.398;2023-02-21T04:29:39;9.10;99.90
13231;DHT22;6681;53.254;10.398;2023-02-21T04:32:05;9.00;99.90
13231;DHT22;6681;53.254;10.398;2023-02-21T04:34:30;8.90;99.90
13231;DHT22;6681;53.254;10.398;2023-02-21T04:36:56;8.90;99.90
13231;DHT22;6681;53.254;10.398;2023-02-21T04:39:22;8.90;99.90
13231;DHT22;6681;53.254;10.398;2023-02-21T04:41:47;8.90;99.90
13231;DHT22;6681;53.254;10.398;2023-02-21T04:44:13;8.90;99.90
13231;DHT22;6681;53.254;10.398;2023-02-21T04:46:39;8.90;99.90
13231;DHT22;6681;53.254;10.398;2023-02-21T04:49:04;9.20;99.90
13231;DHT22;6681;53.254;10.398;2023-02-21T04:51:30;8.90;99.90
13231;DHT22;6681;53.254;10.398;2023-02-21T04:53:55;8.90;99.90
13231;DHT22;6681;53.254;10.398;2023-02-21T04:56:24;8.60;99.90
13231;DHT22;6681;53.254;10.398;2023-02-21T04:58:50;8.90;99.90
13231;DHT22;6681;53.254;10.398;2023-02-21T05:01:18;8.80;99.90
13231;DHT22;6681;53.254;10.398;2023-02-21T05:03:44;8.90;99.90
13231;DHT22;6681;53.254;10.398;2023-02-21T05:06:10;8.90;99.90
13231;DHT22;6681;53.254;10.398;2023-02-21T05:08:41;8.80;99.90
13231;DHT22;6681;53.254;10.398;2023-02-21T05:11:06;8.80;99.90
13231;DHT22;6681;53.254;10.398;2023-02-21T05:13:33;8.80;99.90
13231;DHT22;6681;53.254;10.398;2023-02-21T05:15:58;8.80;99.90
13231;DHT22;6681;53.254;10.398;2023-02-21T05:18:24;8.80;99.90
13231;DHT22;6681;53.254;10.398;2023-02-21T05:20:52;8.80;99.90
13231;DHT22;6681;53.254;10.398;2023-02-21T05:23:18;8.80;99.90
13231;DHT22;6681;53.254;10.398;2023-02-21T05:26:01;8.80;99.90
13231;DHT22;6681;53.254;10.398;2023-02-21T05:28:27;8.90;99.90
13231;DHT22;6681;53.254;10.398;2023-02-21T05:30:53;9.60;99.90
13231;DHT22;6681;53.254;10.398;2023-02-21T05:33:19;8.80;99.90
13231;DHT22;6681;53.254;10.398;2023-02-21T05:35:44;8.80;99.90
13231;DHT22;6681;53.254;10.398;2023-02-21T05:38:12;8.80;99.90
13231;DHT22;6681;53.254;10.398;2023-02-21T05:40:38;8.80;99.90
13231;DHT22;6681;53.254;10.398;2023-02-21T05:43:04;8.80;99.90
13231;DHT22;6681;53.254;10.398;2023-02-21T05:45:29;8.70;99.90
13231;DHT22;6681;53.254;10.398;2023-02-21T05:47:55;8.70;99.90
13231;DHT22;6681;53.254;10.398;2023-02-21T05:50:25;8.70;99.90
13231;DHT22;6681;53.254;10.398;2023-02-21T05:52:51;8.80;99.90
13231;DHT22;6681;53.254;10.398;2023-02-21T05:55:17;8.70;99.90
13231;DHT22;6681;53.254;10.398;2023-02-21T05:57:43;8.90;99.90
13231;DHT22;6681;53.254;10.398;2023-02-21T06:00:21;8.70;99.90
13231;DHT22;6681;53.254;10.398;2023-02-21T06:02:48;8.80;99.90
13231;DHT22;6681;53.254;10.398;2023-02-21T06:05:15;8.70;99.90
13231;DHT22;6681;53.254;10.398;2023-02-21T06:07:41;9.80;99.90
13231;DHT22;6681;53.254;10.398;2023-02-21T06:10:07;8.70;99.90
13231;DHT22;6681;53.254;10.398;2023-02-21T06:12:33;8.70;99.90
13231;DHT22;6681;53.254;10.398;2023-02-21T06:15:01;8.70;99.90
13231;DHT22;6681;53.254;10.398;2023-02-21T06:17:27;8.70;99.90
13231;DHT22;6681;53.254;10.398;2023-02-21T06:19:55;8.70;99.90
13231;DHT22;6681;53.254;10.398;2023-02-21T06:22:21;8.70;99.90
13231;DHT22;6681;53.254;10.398;2023-02-21T06:24:46;8.70;99.90
13231;DHT22;6681;53.254;10.398;2023-02-21T06:27:12;8.70;99.90
13231;DHT22;6681;53.254;10.398;2023-02-21T06:29:40;8.70;99.90
13231;DHT22;6681;53.254;10.398;2023-02-21T06:32:05;8.70;99.90
13231;DHT22;6681;53.254;10.398;2023-02-21T06:34:31;8.70;99.90
13231;DHT22;6681;53.254;10.398;2023-02-21T06:36:57;8.70;99.90
13231;DHT22;6681;53.254;10.398;2023-02-21T06:39:23;8.70;99.90
13231;DHT22;6681;53.254;10.398;2023-02-21T06:41:49;8.70;99.90
13231;DHT22;6681;53.254;10.398;2023-02-21T06:44:15;8.80;99.90
13231;DHT22;6681;53.254;10.398;2023-02-21T06:46:41;8.70;99.90
13231;DHT22;6681;53.254;10.398;2023-02-21T06:49:08;8.70;99.90
13231;DHT22;6681;53.254;10.398;2023-02-21T06:51:39;8.70;99.90
13231;DHT22;6681;53.254;10.398;2023-02-21T06:54:05;9.30;99.90
13231;DHT22;6681;53.254;10.398;2023-02-21T06:56:32;8.90;99.90
13231;DHT22;6681;53.254;10.398;2023-02-21T06:58:58;8.70;99.90
13231;DHT22;6681;53.254;10.398;2023-02-21T07:01:25;8.70;99.90
13231;DHT22;6681;53.254;10.398;2023-02-21T07:03:53;8.70;99.90
13231;DHT22;6681;53.254;10.398;2023-02-21T07:06:18;8.70;99.90
13231;DHT22;6681;53.254;10.398;2023-02-21T07:08:45;8.70;99.90
13231;DHT22;6681;53.254;10.398;2023-02-21T07:11:11;8.70;99.90
13231;DHT22;6681;53.254;10.398;2023-02-21T07:13:37;8.70;99.90
13231;DHT22;6681;53.254;10.398;2023-02-21T07:16:03;8.70;99.90
13231;DHT22;6681;53.254;10.398;2023-02-21T07:18:30;8.70;99.90
13231;DHT22;6681;53.254;10.398;2023-02-21T07:20:56;8.70;99.90
13231;DHT22;6681;53.254;10.398;2023-02-21T07:23:21;8.60;99.90
13231;DHT22;6681;53.254;10.398;2023-02-21T07:25:47;8.70;99.90
13231;DHT22;6681;53.254;10.398;2023-02-21T07:28:13;8.80;99.90
13231;DHT22;6681;53.254;10.398;2023-02-21T07:30:38;8.70;99.90
13231;DHT22;6681;53.254;10.398;2023-02-21T07:33:04;8.70;99.90
13231;DHT22;6681;53.254;10.398;2023-02-21T07:35:30;8.60;99.90
13231;DHT22;6681;53.254;10.398;2023-02-21T07:37:56;8.70;99.90
13231;DHT22;6681;53.254;10.398;2023-02-21T07:40:21;8.70;99.90
13231;DHT22;6681;53.254;10.398;2023-02-21T07:42:47;8.70;99.90
13231;DHT22;6681;53.254;10.398;2023-02-21T07:45:14;8.70;99.90
13231;DHT22;6681;53.254;10.398;2023-02-21T07:47:40;8.70;99.90
13231;DHT22;6681;53.254;10.398;2023-02-21T07:50:06;8.70;99.90
13231;DHT22;6681;53.254;10.398;2023-02-21T07:52:33;8.70;99.90
13231;DHT22;6681;53.254;10.398;2023-02-21T07:54:58;8.70;99.90
13231;DHT22;6681;53.254;10.398;2023-02-21T07:57:24;8.80;99.90
13231;DHT22;6681;53.254;10.398;2023-02-21T07:59:50;8.80;99.90
13231;DHT22;6681;53.254;10.398;2023-02-21T08:02:15;9.40;99.90
13231;DHT22;6681;53.254;10.398;2023-02-21T08:04:41;8.80;99.90
13231;DHT22;6681;53.254;10.398;2023-02-21T08:07:07;8.80;99.90
13231;DHT22;6681;53.254;10.398;2023-02-21T08:09:34;8.80;99.90
13231;DHT22;6681;53.254;10.398;2023-02-21T08:12:00;8.80;99.90
13231;DHT22;6681;53.254;10.398;2023-02-21T08:14:26;8.80;99.90
13231;DHT22;6681;53.254;10.398;2023-02-21T08:16:52;8.80;99.90
13231;DHT22;6681;53.254;10.398;2023-02-21T08:19:17;8.90;99.90
13231;DHT22;6681;53.254;10.398;2023-02-21T08:21:44;8.80;99.90
13231;DHT22;6681;53.254;10.398;2023-02-21T08:24:11;8.80;99.90
13231;DHT22;6681;53.254;10.398;2023-02-21T08:26:37;9.20;99.90
13231;DHT22;6681;53.254;10.398;2023-02-21T08:29:04;8.90;99.90
13231;DHT22;6681;53.254;10.398;2023-02-21T08:31:37;8.90;99.90
13231;DHT22;6681;53.254;10.398;2023-02-21T08:34:04;8.90;99.90
13231;DHT22;6681;53.254;10.398;2023-02-21T08:36:35;8.90;99.90
13231;DHT22;6681;53.254;10.398;2023-02-21T08:39:01;9.00;99.90
13231;DHT22;6681;53.254;10.398;2023-02-21T08:41:45;9.00;99.90
13231;DHT22;6681;53.254;10.398;2023-02-21T08:44:13;9.00;99.90
13231;DHT22;6681;53.254;10.398;2023-02-21T08:46:40;9.10;99.90
13231;DHT22;6681;53.254;10.398;2023-02-21T08:49:09;9.10;99.90
13231;DHT22;6681;53.254;10.398;2023-02-21T08:51:41;9.30;99.90
13231;DHT22;6681;53.254;10.398;2023-02-21T08:54:07;9.20;99.90
13231;DHT22;6681;53.254;10.398;2023-02-21T08:56:33;9.20;99.90
13231;DHT22;6681;53.254;10.398;2023-02-21T08:58:59;9.20;99.90
13231;DHT22;6681;53.254;10.398;2023-02-21T09:01:31;9.20;99.90
13231;DHT22;6681;53.254;10.398;2023-02-21T09:03:57;9.20;99.90
13231;DHT22;6681;53.254;10.398;2023-02-21T09:06:22;9.20;99.90
13231;DHT22;6681;53.254;10.398;2023-02-21T09:08:48;9.30;99.90
13231;DHT22;6681;53.254;10.398;2023-02-21T09:11:13;9.30;99.90
13231;DHT22;6681;53.254;10.398;2023-02-21T09:13:39;9.30;99.90
13231;DHT22;6681;53.254;10.398;2023-02-21T09:16:06;9.40;99.90
13231;DHT22;6681;53.254;10.398;2023-02-21T09:18:32;9.40;99.90
13231;DHT22;6681;53.254;10.398;2023-02-21T09:20:58;9.50;99.90
13231;DHT22;6681;53.254;10.398;2023-02-21T09:23:26;9.50;99.90
13231;DHT22;6681;53.254;10.398;2023-02-21T09:25:52;9.50;99.90
13231;DHT22;6681;53.254;10.398;2023-02-21T09:28:18;9.50;99.90
13231;DHT22;6681;53.254;10.398;2023-02-21T09:30:44;9.50;99.90
13231;DHT22;6681;53.254;10.398;2023-02-21T09:33:11;9.50;99.90
13231;DHT22;6681;53.254;10.398;2023-02-21T09:35:36;9.60;99.90
13231;DHT22;6681;53.254;10.398;2023-02-21T09:38:03;9.60;99.90
13231;DHT22;6681;53.254;10.398;2023-02-21T09:43:20;9.60;99.90
13231;DHT22;6681;53.254;10.398;2023-02-21T09:45:53;9.90;99.90
13231;DHT22;6681;53.254;10.398;2023-02-21T09:48:22;9.60;99.90
13231;DHT22;6681;53.254;10.398;2023-02-21T09:50:56;9.60;99.90
13231;DHT22;6681;53.254;10.398;2023-02-21T09:53:37;9.60;99.90
13231;DHT22;6681;53.254;10.398;2023-02-21T09:56:17;9.60;99.90
13231;DHT22;6681;53.254;10.398;2023-02-21T09:58:46;8.80;99.90
13231;DHT22;6681;53.254;10.398;2023-02-21T10:10:07;9.50;99.90
13231;DHT22;6681;53.254;10.398;2023-02-21T10:12:42;9.50;99.90
13231;DHT22;6681;53.254;10.398;2023-02-21T10:20:57;9.40;99.90
13231;DHT22;6681;53.254;10.398;2023-02-21T10:23:34;9.50;99.90
13231;DHT22;6681;53.254;10.398;2023-02-21T10:26:26;9.50;99.90
13231;DHT22;6681;53.254;10.398;2023-02-21T10:28:53;9.60;99.90
13231;DHT22;6681;53.254;10.398;2023-02-21T10:31:25;9.50;99.90
13231;DHT22;6681;53.254;10.398;2023-02-21T10:33:54;9.50;99.90
13231;DHT22;6681;53.254;10.398;2023-02-21T10:36:21;9.40;99.90
13231;DHT22;6681;53.254;10.398;2023-02-21T10:39:16;9.40;99.90
13231;DHT22;6681;53.254;10.398;2023-02-21T10:41:42;9.40;99.90
13231;DHT22;6681;53.254;10.398;2023-02-21T10:44:29;9.40;99.90
13231;DHT22;6681;53.254;10.398;2023-02-21T10:47:17;9.30;99.90
13231;DHT22;6681;53.254;10.398;2023-02-21T10:52:49;9.30;99.90
13231;DHT22;6681;53.254;10.398;2023-02-21T10:55:21;9.40;99.90
13231;DHT22;6681;53.254;10.398;2023-02-21T10:57:53;9.40;99.90
13231;DHT22;6681;53.254;10.398;2023-02-21T11:00:52;9.40;99.90
13231;DHT22;6681;53.254;10.398;2023-02-21T11:05:51;9.40;99.90
13231;DHT22;6681;53.254;10.398;2023-02-21T11:08:38;9.40;99.90
13231;DHT22;6681;53.254;10.398;2023-02-21T11:11:04;9.50;99.90
13231;DHT22;6681;53.254;10.398;2023-02-21T11:13:31;9.50;99.90
13231;DHT22;6681;53.254;10.398;2023-02-21T11:16:20;9.50;99.90
13231;DHT22;6681;53.254;10.398;2023-02-21T11:19:04;9.50;99.90
13231;DHT22;6681;53.254;10.398;2023-02-21T11:21:30;9.40;99.90
13231;DHT22;6681;53.254;10.398;2023-02-21T11:24:04;9.40;99.90
13231;DHT22;6681;53.254;10.398;2023-02-21T11:26:35;9.40;99.90
13231;DHT22;6681;53.254;10.398;2023-02-21T11:29:09;9.40;99.90
13231;DHT22;6681;53.254;10.398;2023-02-21T11:31:36;9.70;99.90
13231;DHT22;6681;53.254;10.398;2023-02-21T11:34:06;9.60;99.90
13231;DHT22;6681;53.254;10.398;2023-02-21T11:36:42;9.60;99.90
13231;DHT22;6681;53.254;10.398;2023-02-21T11:39:30;8.90;99.90
13231;DHT22;6681;53.254;10.398;2023-02-21T11:42:01;9.70;99.90
13231;DHT22;6681;53.254;10.398;2023-02-21T11:44:39;9.70;99.90
13231;DHT22;6681;53.254;10.398;2023-02-21T11:47:18;9.70;99.90
13231;DHT22;6681;53.254;10.398;2023-02-21T11:55:19;9.70;99.90
13231;DHT22;6681;53.254;10.398;2023-02-21T11:58:19;9.70;99.90
13231;DHT22;6681;53.254;10.398;2023-02-21T12:01:04;9.80;99.90
13231;DHT22;6681;53.254;10.398;2023-02-21T12:03:53;9.80;99.90
13231;DHT22;6681;53.254;10.398;2023-02-21T12:15:21;9.90;99.90
13231;DHT22;6681;53.254;10.398;2023-02-21T12:18:04;10.00;99.90
13231;DHT22;6681;53.254;10.398;2023-02-21T12:23:07;10.10;99.90
13231;DHT22;6681;53.254;10.398;2023-02-21T12:36:42;10.20;99.90
13231;DHT22;6681;53.254;10.398;2023-02-21T12:39:19;10.30;99.90
13231;DHT22;6681;53.254;10.398;2023-02-21T12:44:55;10.40;99.90
13231;DHT22;6681;53.254;10.398;2023-02-21T12:47:37;10.40;99.90
13231;DHT22;6681;53.254;10.398;2023-02-21T12:50:19;10.40;99.90
13231;DHT22;6681;53.254;10.398;2023-02-21T12:55:44;10.40;99.90
13231;DHT22;6681;53.254;10.398;2023-02-21T12:58:33;10.40;99.90
13231;DHT22;6681;53.254;10.398;2023-02-21T13:01:06;10.30;99.90
13231;DHT22;6681;53.254;10.398;2023-02-21T13:06:34;10.30;99.90
13231;DHT22;6681;53.254;10.398;2023-02-21T13:12:11;10.30;99.90
13231;DHT22;6681;53.254;10.398;2023-02-21T13:14:43;10.20;99.90
13231;DHT22;6681;53.254;10.398;2023-02-21T13:17:12;10.20;99.90
13231;DHT22;6681;53.254;10.398;2023-02-21T13:20:04;10.20;99.90
13231;DHT22;6681;53.254;10.398;2023-02-21T13:28:43;10.20;99.90
13231;DHT22;6681;53.254;10.398;2023-02-21T13:31:22;10.20;99.90
13231;DHT22;6681;53.254;10.398;2023-02-21T13:33:56;10.20;99.90
13231;DHT22;6681;53.254;10.398;2023-02-21T13:39:16;10.30;99.90
13231;DHT22;6681;53.254;10.398;2023-02-21T13:41:55;10.30;99.90
13231;DHT22;6681;53.254;10.398;2023-02-21T13:44:29;10.30;99.90
13231;DHT22;6681;53.254;10.398;2023-02-21T13:47:03;10.30;99.90
13231;DHT22;6681;53.254;10.398;2023-02-21T13:49:41;10.40;99.90
13231;DHT22;6681;53.254;10.398;2023-02-21T13:57:50;10.50;99.90
13231;DHT22;6681;53.254;10.398;2023-02-21T14:03:09;10.50;99.90
13231;DHT22;6681;53.254;10.398;2023-02-21T14:11:25;10.50;99.90
13231;DHT22;6681;53.254;10.398;2023-02-21T14:14:05;10.50;99.90
13231;DHT22;6681;53.254;10.398;2023-02-21T14:16:53;10.50;99.90
13231;DHT22;6681;53.254;10.398;2023-02-21T14:19:35;10.50;99.90
13231;DHT22;6681;53.254;10.398;2023-02-21T14:22:03;10.40;99.90
13231;DHT22;6681;53.254;10.398;2023-02-21T14:24:36;10.50;99.90
13231;DHT22;6681;53.254;10.398;2023-02-21T14:32:37;10.50;99.90
13231;DHT22;6681;53.254;10.398;2023-02-21T14:35:30;10.50;99.90
13231;DHT22;6681;53.254;10.398;2023-02-21T14:38:34;10.50;99.90
13231;DHT22;6681;53.254;10.398;2023-02-21T14:44:18;10.40;99.90
13231;DHT22;6681;53.254;10.398;2023-02-21T14:46:59;10.40;99.90
13231;DHT22;6681;53.254;10.398;2023-02-21T14:49:54;10.30;99.90
13231;DHT22;6681;53.254;10.398;2023-02-21T14:58:05;10.20;99.90
13231;DHT22;6681;53.254;10.398;2023-02-21T15:03:40;10.10;99.90
13231;DHT22;6681;53.254;10.398;2023-02-21T15:06:09;10.10;99.90
13231;DHT22;6681;53.254;10.398;2023-02-21T15:08:55;10.00;99.90
13231;DHT22;6681;53.254;10.398;2023-02-21T15:14:10;10.10;99.90
13231;DHT22;6681;53.254;10.398;2023-02-21T15:16:38;10.00;99.90
13231;DHT22;6681;53.254;10.398;2023-02-21T15:19:05;10.00;99.90
13231;DHT22;6681;53.254;10.398;2023-02-21T15:21:30;9.90;99.90
13231;DHT22;6681;53.254;10.398;2023-02-21T15:24:13;10.00;99.90
13231;DHT22;6681;53.254;10.398;2023-02-21T15:26:39;9.90;99.90
13231;DHT22;6681;53.254;10.398;2023-02-21T15:29:13;9.90;99.90
13231;DHT22;6681;53.254;10.398;2023-02-21T15:31:48;9.90;99.90
13231;DHT22;6681;53.254;10.398;2023-02-21T15:34:24;9.90;99.90
13231;DHT22;6681;53.254;10.398;2023-02-21T15:39:39;9.80;99.90
13231;DHT22;6681;53.254;10.398;2023-02-21T15:42:08;9.80;99.90
13231;DHT22;6681;53.254;10.398;2023-02-21T15:44:36;9.80;99.90
13231;DHT22;6681;53.254;10.398;2023-02-21T15:47:08;9.80;99.90
13231;DHT22;6681;53.254;10.398;2023-02-21T15:49:42;9.80;99.90
13231;DHT22;6681;53.254;10.398;2023-02-21T15:52:27;10.30;99.90
13231;DHT22;6681;53.254;10.398;2023-02-21T15:55:13;9.80;99.90
13231;DHT22;6681;53.254;10.398;2023-02-21T15:57:39;9.80;99.90
13231;DHT22;6681;53.254;10.398;2023-02-21T16:00:38;9.80;99.90
13231;DHT22;6681;53.254;10.398;2023-02-21T16:06:43;9.70;99.90
13231;DHT22;6681;53.254;10.398;2023-02-21T16:08:49;9.70;99.90
13231;DHT22;6681;53.254;10.398;2023-02-21T16:11:16;9.70;99.90
13231;DHT22;6681;53.254;10.398;2023-02-21T16:13:43;9.70;99.90
13231;DHT22;6681;53.254;10.398;2023-02-21T16:16:09;9.70;99.90
13231;DHT22;6681;53.254;10.398;2023-02-21T16:18:35;9.80;99.90
13231;DHT22;6681;53.254;10.398;2023-02-21T16:21:04;9.60;99.90
13231;DHT22;6681;53.254;10.398;2023-02-21T16:23:34;9.60;99.90
13231;DHT22;6681;53.254;10.398;2023-02-21T16:28:28;9.60;99.90
13231;DHT22;6681;53.254;10.398;2023-02-21T16:30:58;9.60;99.90
13231;DHT22;6681;53.254;10.398;2023-02-21T16:33:26;9.60;99.90
13231;DHT22;6681;53.254;10.398;2023-02-21T16:35:52;9.60;99.90
13231;DHT22;6681;53.254;10.398;2023-02-21T16:38:19;9.60;99.90
13231;DHT22;6681;53.254;10.398;2023-02-21T16:40:46;9.50;99.90
13231;DHT22;6681;53.254;10.398;2023-02-21T16:43:24;9.60;99.90
13231;DHT22;6681;53.254;10.398;2023-02-21T16:45:53;9.60;99.90
13231;DHT22;6681;53.254;10.398;2023-02-21T16:48:25;9.50;99.90
13231;DHT22;6681;53.254;10.398;2023-02-21T16:50:53;9.50;99.90
13231;DHT22;6681;53.254;10.398;2023-02-21T16:53:20;9.50;99.90
13231;DHT22;6681;53.254;10.398;2023-02-21T16:55:46;9.60;99.90
13231;DHT22;6681;53.254;10.398;2023-02-21T16:58:35;9.60;99.90
13231;DHT22;6681;53.254;10.398;2023-02-21T17:01:16;9.50;99.90
13231;DHT22;6681;53.254;10.398;2023-02-21T17:03:42;9.50;99.90
13231;DHT22;6681;53.254;10.398;2023-02-21T17:06:14;9.50;99.90
13231;DHT22;6681;53.254;10.398;2023-02-21T17:08:41;9.50;99.90
13231;DHT22;6681;53.254;10.398;2023-02-21T17:11:13;9.50;99.90
13231;DHT22;6681;53.254;10.398;2023-02-21T17:13:38;9.50;99.90
13231;DHT22;6681;53.254;10.398;2023-02-21T17:16:05;9.40;99.90
13231;DHT22;6681;53.254;10.398;2023-02-21T17:18:30;9.40;99.90
13231;DHT22;6681;53.254;10.398;2023-02-21T17:20:57;9.40;99.90
13231;DHT22;6681;53.254;10.398;2023-02-21T17:23:24;9.40;99.90
13231;DHT22;6681;53.254;10.398;2023-02-21T17:25:49;9.40;99.90
13231;DHT22;6681;53.254;10.398;2023-02-21T17:28:15;9.30;99.90
13231;DHT22;6681;53.254;10.398;2023-02-21T17:30:41;9.30;99.90
13231;DHT22;6681;53.254;10.398;2023-02-21T17:33:06;9.30;99.90
13231;DHT22;6681;53.254;10.398;2023-02-21T17:35:33;9.30;99.90
13231;DHT22;6681;53.254;10.398;2023-02-21T17:37:59;9.30;99.90
13231;DHT22;6681;53.254;10.398;2023-02-21T17:40:26;9.50;99.90
13231;DHT22;6681;53.254;10.398;2023-02-21T17:42:52;9.20;99.90
13231;DHT22;6681;53.254;10.398;2023-02-21T17:45:19;9.20;99.90
13231;DHT22;6681;53.254;10.398;2023-02-21T17:47:46;9.20;99.90
13231;DHT22;6681;53.254;10.398;2023-02-21T17:50:13;9.20;99.90
13231;DHT22;6681;53.254;10.398;2023-02-21T17:52:39;9.20;99.90
13231;DHT22;6681;53.254;10.398;2023-02-21T17:55:06;9.10;99.90
13231;DHT22;6681;53.254;10.398;2023-02-21T17:57:36;9.20;99.90
13231;DHT22;6681;53.254;10.398;2023-02-21T18:00:08;9.10;99.90
13231;DHT22;6681;53.254;10.398;2023-02-21T18:02:36;9.20;99.90
13231;DHT22;6681;53.254;10.398;2023-02-21T18:05:02;9.20;99.90
13231;DHT22;6681;53.254;10.398;2023-02-21T18:07:28;9.10;99.90
13231;DHT22;6681;53.254;10.398;2023-02-21T18:09:59;9.10;99.90
13231;DHT22;6681;53.254;10.398;2023-02-21T18:12:24;9.10;99.90
13231;DHT22;6681;53.254;10.398;2023-02-21T18:14:50;9.10;99.90
13231;DHT22;6681;53.254;10.398;2023-02-21T18:17:16;9.10;99.90
13231;DHT22;6681;53.254;10.398;2023-02-21T18:19:42;9.10;99.90
13231;DHT22;6681;53.254;10.398;2023-02-21T18:22:08;9.10;99.90
13231;DHT22;6681;53.254;10.398;2023-02-21T18:24:34;9.10;99.90
13231;DHT22;6681;53.254;10.398;2023-02-21T18:27:00;9.10;99.90
13231;DHT22;6681;53.254;10.398;2023-02-21T18:29:26;9.10;99.90
13231;DHT22;6681;53.254;10.398;2023-02-21T18:31:52;9.10;99.90
13231;DHT22;6681;53.254;10.398;2023-02-21T18:34:20;9.00;99.90
13231;DHT22;6681;53.254;10.398;2023-02-21T18:36:50;8.90;99.90
13231;DHT22;6681;53.254;10.398;2023-02-21T18:39:18;9.00;99.90
13231;DHT22;6681;53.254;10.398;2023-02-21T18:41:45;9.00;99.90
13231;DHT22;6681;53.254;10.398;2023-02-21T18:44:11;9.00;99.90